MAPA DE AEROPUERTO

INFORMACIÓN METAR y TAF

METAR FOR LXGB
ADDS - METARS form results

(1115 UTC 01 December 2020)
Data provider http://aviationweather.gov/metar/data/
 
METAR text: LXGB 011050Z 05006KT 9999 FEW014 18/12 Q1022 NOSIG RMK BLU BLU
Conditions at: LXGB (GIBRALTAR (CIV/M, GI) observed 1050 UTC 01 December 2020
Temperature: 18.0°C (64°F)
Dewpoint: 12.0°C (54°F) [RH = 68%]
Pressure (altimeter): 30.18 inches Hg (1022.0 mb)
Winds: from the NE (50 degrees) at 7 MPH (6 knots; 3.1 m/s)
Visibility: 6 or more miles (10+ km)
Ceiling: at least 12,000 feet AGL
Clouds: few clouds at 1400 feet AGL
Weather: no significant weather observed at this time

METAR text: LXGB 011024Z 04005KT 9999 FEW014 18/12 Q1022 NOSIG RMK BLU BLU
Conditions at: LXGB (GIBRALTAR (CIV/M, GI) observed 1024 UTC 01 December 2020
Temperature: 18.0°C (64°F)
Dewpoint: 12.0°C (54°F) [RH = 68%]
Pressure (altimeter): 30.18 inches Hg (1022.0 mb)
Winds: from the NE (40 degrees) at 6 MPH (5 knots; 2.6 m/s)
Visibility: 6 or more miles (10+ km)
Ceiling: at least 12,000 feet AGL
Clouds: few clouds at 1400 feet AGL
Weather: no significant weather observed at this time

Forecast for: LXGB (GIBRALTAR (CIV/M, GI)
Text: TAF LXGB 011041Z 0112/0121 05008KT 9999 FEW012
Forecast period: 1200 to 1500 UTC 01 December 2020
Forecast type: FROM: standard forecast or significant change
Winds: from the NE (50 degrees) at 9 MPH (8 knots; 4.1 m/s)
Visibility: 6 or more miles (10+ km)
Ceiling: at least 12,000 feet AGL
Clouds: few clouds at 1200 feet AGL
Weather: no significant weather forecast for this period
Text: TEMPO 0113/0115 VRB03KT
Forecast period: 1300 to 1500 UTC 01 December 2020
Forecast type: TEMPORARY: The following changes expected for less than half the time period
Winds: variable direction winds at 3 MPH (3 knots; 1.5 m/s)
Visibility: missing
Ceiling: unknown
Clouds: missing
Weather: no significant weather forecast for this period
Text: BECMG 0115/0119 27005KT
Forecast period: 1500 to 2100 UTC 01 December 2020
Forecast type: BECOMING: Conditions expected to become as follows by 1900 UTC 01 December 2020
Winds: from the W (270 degrees) at 6 MPH (5 knots; 2.6 m/s)
Visibility: 6 or more miles (10+ km)
Ceiling: at least 12,000 feet AGL
Clouds: few clouds at 1200 feet AGL
Weather: no significant weather forecast for this period